Time;durP1;ratioP1;P1;durP2;ratioP2;P2;SDS_P1;SDS_P2;PMS_P1;PMS_P2;Temp;Humidity;BMP_temperature;BMP_pressure;BME280_temperature;BME280_humidity;BME280_pressure;Samples;Min_cycle;Max_cycle;Signal;HPM_P1;HPM_P2
2021/11/26 00:01:04;;;;;;;6.75;3.22;;;;;;;6.60;62.71;100693.09;4915263;28;123562;-62
2021/11/26 00:03:32;;;;;;;12.80;3.63;;;;;;;6.60;62.85;100690.47;4913985;28;114362;-63
2021/11/26 00:05:59;;;;;;;8.80;3.80;;;;;;;6.59;63.09;100688.72;4917559;28;114108;-63
2021/11/26 00:08:27;;;;;;;10.50;3.60;;;;;;;6.57;62.91;100686.19;4918972;28;124505;-63
2021/11/26 00:10:54;;;;;;;6.90;3.05;;;;;;;6.57;62.96;100685.28;4930646;28;122800;-63
2021/11/26 00:13:27;;;;;;;7.32;3.22;;;;;;;6.56;62.76;100676.53;4928411;28;115005;-63
2021/11/26 00:16:02;;;;;;;7.82;3.92;;;;;;;6.57;62.86;100674.78;4927829;28;114300;-63
2021/11/26 00:18:31;;;;;;;9.05;3.22;;;;;;;6.57;62.93;100670.38;4916071;28;123868;-62
2021/11/26 00:21:00;;;;;;;9.93;3.47;;;;;;;6.58;62.86;100665.97;4915627;28;125064;-62
2021/11/26 00:23:27;;;;;;;10.57;3.20;;;;;;;6.58;63.09;100658.09;4916698;28;115390;-63
2021/11/26 00:25:54;;;;;;;6.65;3.13;;;;;;;6.57;63.12;100648.47;4920373;28;113669;-63
2021/11/26 00:28:21;;;;;;;8.98;3.40;;;;;;;6.58;62.88;100647.56;4912738;28;123537;-63
2021/11/26 00:30:48;;;;;;;8.23;3.83;;;;;;;6.60;62.88;100637.84;4930629;28;123719;-63
2021/11/26 00:33:16;;;;;;;10.00;3.40;;;;;;;6.61;62.94;100634.28;4920269;28;114365;-63
2021/11/26 00:35:43;;;;;;;6.63;3.22;;;;;;;6.62;63.10;100636.03;4912762;28;114007;-63
2021/11/26 00:38:10;;;;;;;5.95;3.03;;;;;;;6.63;63.18;100627.22;4925483;28;124821;-64
2021/11/26 00:40:37;;;;;;;6.88;2.80;;;;;;;6.63;62.96;100616.72;4929034;28;123777;-63
2021/11/26 00:43:04;;;;;;;9.15;3.45;;;;;;;6.62;63.05;100605.31;4922961;28;114961;-64
2021/11/26 00:45:32;;;;;;;12.40;3.53;;;;;;;6.65;63.29;100608.75;4917352;28;113897;-62
2021/11/26 00:47:59;;;;;;;5.40;2.75;;;;;;;6.66;63.16;100606.06;4920034;28;124748;-62
2021/11/26 00:50:27;;;;;;;8.65;3.40;;;;;;;6.68;63.09;100604.25;4914389;28;123693;-62
2021/11/26 00:52:55;;;;;;;9.90;3.33;;;;;;;6.70;63.29;100601.56;4922685;28;114604;-62
2021/11/26 00:55:22;;;;;;;8.98;3.05;;;;;;;6.72;63.18;100592.69;4917503;28;113785;-62
2021/11/26 00:57:49;;;;;;;6.95;2.70;;;;;;;6.71;63.01;100588.34;4920440;28;122726;-62
2021/11/26 01:00:18;;;;;;;9.13;3.38;;;;;;;6.73;63.13;100581.28;4915277;28;123774;-62
2021/11/26 01:02:45;;;;;;;11.88;3.58;;;;;;;6.75;62.85;100579.44;4919281;28;114342;-62
2021/11/26 01:05:13;;;;;;;9.73;3.03;;;;;;;6.76;63.04;100568.03;4918321;28;113902;-62
2021/11/26 01:07:42;;;;;;;7.55;2.90;;;;;;;6.77;63.26;100567.09;4915381;28;124279;-62
2021/11/26 01:10:13;;;;;;;7.13;3.13;;;;;;;6.78;63.11;100560.94;4920888;28;123917;-62
2021/11/26 01:12:41;;;;;;;6.80;3.13;;;;;;;6.79;62.89;100559.16;4918784;28;115165;-63
2021/11/26 01:15:11;;;;;;;6.00;3.00;;;;;;;6.80;63.44;100553.84;4916376;28;115009;-62
2021/11/26 01:17:41;;;;;;;6.75;2.88;;;;;;;6.81;63.11;100546.78;4919886;28;125968;-62
2021/11/26 01:20:11;;;;;;;8.20;2.92;;;;;;;6.83;63.07;100545.81;4917155;28;123278;-62
2021/11/26 01:22:39;;;;;;;6.35;3.22;;;;;;;6.85;63.14;100537.03;4919992;28;114518;-62
2021/11/26 01:25:07;;;;;;;7.03;2.67;;;;;;;6.87;63.34;100540.47;4912895;28;113722;-62
2021/11/26 01:27:35;;;;;;;9.20;2.80;;;;;;;6.88;63.51;100536.94;4927206;28;124363;-62
2021/11/26 01:30:11;;;;;;;5.90;2.65;;;;;;;6.89;63.44;100538.63;4912569;28;122579;-62
2021/11/26 01:32:38;;;;;;;;;;;;;;;6.89;63.26;100533.38;4921160;28;114433;-62
2021/11/26 01:35:05;;;;;;;8.52;2.63;;;;;;;6.93;63.36;100537.59;4916023;28;113559;-62
2021/11/26 01:37:33;;;;;;;8.80;2.78;;;;;;;6.94;63.55;100536.72;4926619;28;123130;-63
2021/11/26 01:40:00;;;;;;;5.47;2.60;;;;;;;6.95;63.50;100522.59;4917360;28;123761;-62
2021/11/26 01:42:27;;;;;;;6.80;2.83;;;;;;;6.97;63.42;100519.03;4923614;28;113690;-62
2021/11/26 01:44:54;;;;;;;5.55;2.72;;;;;;;7.00;63.33;100525.94;4920623;28;113704;-62
2021/11/26 01:47:22;;;;;;;8.27;3.20;;;;;;;7.02;63.32;100514.44;4913608;28;124981;-62
2021/11/26 01:49:49;;;;;;;6.85;2.90;;;;;;;7.05;63.37;100518.75;4921209;28;123654;-62
2021/11/26 01:52:16;;;;;;;6.97;2.45;;;;;;;7.06;63.64;100509.94;4917694;28;114318;-62
2021/11/26 01:54:44;;;;;;;6.60;2.47;;;;;;;7.07;63.36;100503.75;4922932;28;113173;-62
2021/11/26 01:57:11;;;;;;;6.90;2.80;;;;;;;7.10;63.70;100506.28;4924772;28;124165;-62
2021/11/26 01:59:38;;;;;;;6.25;2.53;;;;;;;7.13;63.57;100500.91;4914177;28;124084;-62
2021/11/26 02:02:05;;;;;;;5.72;2.17;;;;;;;7.14;63.50;100496.47;4917008;28;115438;-62
2021/11/26 02:04:33;;;;;;;8.82;2.67;;;;;;;7.16;63.62;100490.25;4922896;28;113972;-62
2021/11/26 02:07:00;;;;;;;6.25;2.40;;;;;;;7.17;63.33;100481.44;4917866;28;124305;-62
2021/11/26 02:09:28;;;;;;;5.78;2.67;;;;;;;7.17;63.20;100476.16;4918781;28;124931;-62
2021/11/26 02:11:55;;;;;;;6.78;2.70;;;;;;;7.18;63.40;100472.63;4914002;28;114281;-62
2021/11/26 02:14:22;;;;;;;9.38;3.10;;;;;;;7.20;63.41;100472.56;4912637;28;114436;-62
2021/11/26 02:16:50;;;;;;;8.00;2.85;;;;;;;7.19;63.52;100463.78;4922042;28;123091;-62
2021/11/26 02:19:22;;;;;;;3.10;2.22;;;;;;;7.24;63.39;100470.69;4914805;28;123686;-62
2021/11/26 02:21:50;;;;;;;5.50;2.50;;;;;;;7.25;63.45;100467.13;4916259;28;114115;-62
2021/11/26 02:24:19;;;;;;;4.50;2.10;;;;;;;7.24;63.28;100454.88;4931924;28;112968;-62
2021/11/26 02:26:48;;;;;;;4.80;2.70;;;;;;;7.25;63.36;100452.16;4918488;28;123825;-62
2021/11/26 02:29:17;;;;;;;6.45;2.75;;;;;;;7.28;63.67;100445.94;4914805;28;124522;-62
2021/11/26 02:31:46;;;;;;;6.35;2.33;;;;;;;7.31;63.71;100440.53;4914577;28;114563;-63
2021/11/26 02:34:13;;;;;;;6.45;2.55;;;;;;;7.33;63.69;100433.47;4914729;28;113777;-62
2021/11/26 02:36:41;;;;;;;6.57;2.45;;;;;;;7.36;63.30;100428.06;4914861;28;125456;-62
2021/11/26 02:39:10;;;;;;;5.72;2.10;;;;;;;7.38;63.46;100426.22;4918683;28;123625;-62
2021/11/26 02:41:42;;;;;;;6.40;2.92;;;;;;;7.41;63.46;100415.56;4922022;28;114549;-62
2021/11/26 02:44:10;;;;;;;8.15;2.90;;;;;;;7.41;63.42;100410.31;4916279;28;114012;-62
2021/11/26 02:46:37;;;;;;;4.97;2.17;;;;;;;7.43;63.55;100403.19;4912472;28;124486;-62
2021/11/26 02:49:06;;;;;;;5.32;2.63;;;;;;;7.45;63.42;100404.00;4920029;28;123367;-62
2021/11/26 02:51:34;;;;;;;6.75;2.67;;;;;;;7.46;63.39;100403.09;4912402;28;114114;-62
2021/11/26 02:54:01;;;;;;;4.00;2.25;;;;;;;7.47;63.70;100399.53;4914350;28;114842;-62
2021/11/26 02:56:29;;;;;;;4.63;2.22;;;;;;;7.50;63.52;100398.56;4920200;28;123685;-63
2021/11/26 02:58:56;;;;;;;5.20;2.15;;;;;;;7.51;63.31;100398.47;4931112;28;123934;-63
2021/11/26 03:01:24;;;;;;;8.60;2.70;;;;;;;7.52;63.37;100392.31;4922278;28;114186;-63
2021/11/26 03:03:51;;;;;;;6.10;3.05;;;;;;;7.54;63.19;100395.72;4914209;28;113752;-63
2021/11/26 03:06:18;;;;;;;5.60;3.65;;;;;;;7.55;63.43;100392.19;4918943;28;124074;-63
2021/11/26 03:08:45;;;;;;;6.18;4.00;;;;;;;7.56;63.26;100388.63;4916971;28;122726;-63
2021/11/26 03:11:12;;;;;;;7.85;4.43;;;;;;;7.58;63.54;100381.50;4912990;28;113424;-63
2021/11/26 03:13:40;;;;;;;6.40;4.70;;;;;;;7.59;63.34;100372.69;4915860;28;113932;-63
2021/11/26 03:16:07;;;;;;;10.73;4.65;;;;;;;7.60;63.34;100369.13;4918492;28;123964;-63
2021/11/26 03:18:34;;;;;;;6.00;4.38;;;;;;;7.62;63.13;100360.31;4925011;28;123746;-63
2021/11/26 03:21:02;;;;;;;7.15;4.13;;;;;;;7.63;63.70;100362.88;4915478;28;113924;-63
2021/11/26 03:23:29;;;;;;;5.90;3.50;;;;;;;7.64;63.53;100353.19;4915789;28;114090;-63
2021/11/26 03:25:56;;;;;;;6.18;2.97;;;;;;;7.65;63.58;100339.09;4916788;28;124403;-63
2021/11/26 03:28:23;;;;;;;4.68;3.40;;;;;;;7.67;63.34;100332.84;4910068;28;124636;-63
2021/11/26 03:30:50;;;;;;;5.95;2.85;;;;;;;7.69;63.42;100335.44;4914456;28;114092;-63
2021/11/26 03:33:19;;;;;;;8.43;2.95;;;;;;;7.72;63.60;100327.38;4924759;28;113998;-63
2021/11/26 03:35:48;;;;;;;4.22;2.45;;;;;;;7.74;63.17;100320.25;4913110;28;124487;-63
2021/11/26 03:38:16;;;;;;;3.72;2.10;;;;;;;7.74;63.72;100312.34;4916186;28;124391;-63
2021/11/26 03:40:43;;;;;;;4.38;1.77;;;;;;;7.75;63.69;100308.81;4917630;28;114951;-63
2021/11/26 03:43:10;;;;;;;5.80;1.88;;;;;;;7.78;63.60;100313.97;4919010;28;114755;-63
2021/11/26 03:45:37;;;;;;;5.93;1.88;;;;;;;7.78;63.87;100303.41;4912811;28;123889;-63
2021/11/26 03:48:05;;;;;;;3.35;1.75;;;;;;;7.79;63.51;100299.84;4912330;28;124271;-64
2021/11/26 03:50:32;;;;;;;5.80;1.50;;;;;;;7.81;63.82;100298.00;4912368;28;114452;-63
2021/11/26 03:52:59;;;;;;;3.83;1.60;;;;;;;7.82;63.76;100294.44;4925195;28;114599;-64
2021/11/26 03:55:27;;;;;;;3.85;1.52;;;;;;;7.83;63.78;100290.88;4913768;28;124027;-63
2021/11/26 03:57:56;;;;;;;3.10;1.48;;;;;;;7.85;63.68;100283.75;4918363;28;123716;-63
2021/11/26 04:00:23;;;;;;;5.25;1.63;;;;;;;7.88;63.73;100278.34;4914536;28;114163;-64
2021/11/26 04:02:51;;;;;;;2.50;1.30;;;;;;;7.89;63.72;100272.19;4915670;28;114345;-64
2021/11/26 04:05:18;;;;;;;1.85;1.23;;;;;;;7.91;63.89;100267.69;4915250;28;124721;-63
2021/11/26 04:07:46;;;;;;;4.07;1.30;;;;;;;7.93;63.72;100262.31;4917687;28;123986;-64
2021/11/26 04:10:16;;;;;;;2.30;1.00;;;;;;;7.95;63.67;100258.72;4914473;28;114199;-64
2021/11/26 04:12:47;;;;;;;2.33;1.15;;;;;;;7.99;64.00;100254.16;4918968;28;113963;-63
2021/11/26 04:15:15;;;;;;;2.95;1.08;;;;;;;8.01;63.69;100246.19;4912681;28;124352;-63
2021/11/26 04:17:45;;;;;;;3.28;1.20;;;;;;;8.03;63.75;100239.06;4918473;28;124159;-63
2021/11/26 04:20:14;;;;;;;3.53;1.20;;;;;;;8.04;63.59;100230.22;4912272;28;114409;-64
2021/11/26 04:22:41;;;;;;;4.93;1.13;;;;;;;8.07;63.94;100230.09;4923577;28;116138;-64
2021/11/26 04:25:11;;;;;;;3.55;1.10;;;;;;;8.10;63.39;100232.56;4917956;28;123685;-64
2021/11/26 04:27:38;;;;;;;3.45;1.00;;;;;;;8.13;63.58;100229.81;4923721;28;123808;-64
2021/11/26 04:30:07;;;;;;;2.97;1.25;;;;;;;8.15;63.98;100227.97;4915404;28;115715;-63
2021/11/26 04:32:35;;;;;;;2.58;1.02;;;;;;;8.16;63.91;100219.13;4920521;28;114516;-63
2021/11/26 04:35:04;;;;;;;1.98;1.10;;;;;;;8.19;63.54;100218.97;4915205;28;124353;-63
2021/11/26 04:37:31;;;;;;;3.65;1.10;;;;;;;8.19;63.57;100208.44;4920007;28;123988;-63
2021/11/26 04:39:59;;;;;;;2.33;1.10;;;;;;;8.19;63.74;100200.50;4916606;28;114212;-63
2021/11/26 04:42:26;;;;;;;3.33;1.00;;;;;;;8.19;63.42;100196.13;4913890;28;114519;-63
2021/11/26 04:44:53;;;;;;;2.13;1.08;;;;;;;8.20;63.93;100194.31;4913341;28;124780;-63
2021/11/26 04:47:20;;;;;;;1.90;1.00;;;;;;;8.22;63.66;100176.66;4913320;28;124442;-63
2021/11/26 04:49:47;;;;;;;2.47;1.30;;;;;;;8.24;64.02;100174.78;4917233;28;114549;-63
2021/11/26 04:52:14;;;;;;;2.90;1.10;;;;;;;8.25;63.60;100171.25;4918140;28;114095;-63
2021/11/26 04:54:41;;;;;;;2.03;1.00;;;;;;;8.27;63.43;100166.75;4915341;28;125546;-63
2021/11/26 04:57:09;;;;;;;3.08;1.50;;;;;;;8.28;63.55;100165.81;4911044;28;124468;-63
2021/11/26 04:59:36;;;;;;;2.58;1.25;;;;;;;8.29;63.91;100172.81;4922968;28;114164;-64
2021/11/26 05:02:04;;;;;;;3.83;1.38;;;;;;;8.30;63.53;100163.94;4914669;28;114041;-63
2021/11/26 05:04:31;;;;;;;5.53;1.40;;;;;;;8.29;63.46;100156.97;4911194;28;124372;-63
2021/11/26 05:07:01;;;;;;;2.88;1.33;;;;;;;8.31;63.48;100154.28;4914693;28;124924;-64
2021/11/26 05:09:28;;;;;;;3.45;1.40;;;;;;;8.31;63.40;100155.13;4916718;28;114697;-64
2021/11/26 05:11:55;;;;;;;4.63;1.30;;;;;;;8.31;63.83;100155.13;4921932;28;113978;-64
2021/11/26 05:14:24;;;;;;;5.40;1.67;;;;;;;8.32;63.83;100145.41;4910530;28;123778;-64
2021/11/26 05:16:52;;;;;;;4.88;1.80;;;;;;;8.31;63.37;100139.28;4913312;28;123953;-63
2021/11/26 05:19:19;;;;;;;2.67;1.42;;;;;;;8.31;63.45;100138.44;4914203;28;115299;-64
2021/11/26 05:21:46;;;;;;;4.03;1.70;;;;;;;8.30;63.50;100132.28;4923518;28;115172;-64
2021/11/26 05:24:14;;;;;;;3.63;1.67;;;;;;;8.29;63.55;100125.31;4912556;28;124068;-64
2021/11/26 05:26:41;;;;;;;4.50;2.08;;;;;;;8.28;63.29;100123.59;4920995;28;123862;-63
2021/11/26 05:29:08;;;;;;;3.83;1.85;;;;;;;8.26;63.51;100120.16;4917175;28;113976;-63
2021/11/26 05:31:36;;;;;;;6.40;2.13;;;;;;;8.27;63.84;100119.25;4922584;28;114302;-63
2021/11/26 05:34:05;;;;;;;5.57;2.22;;;;;;;8.27;63.35;100115.75;4911936;28;124790;-64
2021/11/26 05:36:33;;;;;;;4.85;2.22;;;;;;;8.25;63.83;100107.94;4916313;28;123696;-63
2021/11/26 05:39:01;;;;;;;6.18;2.35;;;;;;;8.25;63.57;100107.94;4911067;28;114284;-63
2021/11/26 05:41:28;;;;;;;5.22;2.17;;;;;;;8.24;63.80;100100.94;4913504;28;114281;-63
2021/11/26 05:43:55;;;;;;;5.00;2.60;;;;;;;8.24;63.60;100095.66;4917961;28;124620;-63
2021/11/26 05:46:23;;;;;;;8.20;2.85;;;;;;;8.23;63.61;100098.34;4926838;28;122858;-63
2021/11/26 05:48:50;;;;;;;5.35;2.65;;;;;;;8.21;63.41;100095.78;4911408;28;114598;-63
2021/11/26 05:51:17;;;;;;;5.10;2.95;;;;;;;8.20;63.52;100094.09;4920599;28;113331;-64
2021/11/26 05:53:44;;;;;;;5.82;2.70;;;;;;;8.18;63.56;100085.41;4913393;28;123873;-63
2021/11/26 05:56:12;;;;;;;6.78;2.90;;;;;;;8.17;63.33;100078.41;4912375;28;124053;-63
2021/11/26 05:58:39;;;;;;;5.75;2.95;;;;;;;8.16;63.67;100076.69;4914547;28;114055;-64
2021/11/26 06:01:06;;;;;;;7.13;3.58;;;;;;;8.15;63.39;100069.69;4910073;28;114299;-63
2021/11/26 06:03:33;;;;;;;6.22;3.03;;;;;;;8.14;63.40;100060.09;4922160;28;124043;-63
2021/11/26 06:06:01;;;;;;;5.13;3.22;;;;;;;8.13;63.74;100055.75;4921930;28;124197;-63
2021/11/26 06:08:28;;;;;;;6.35;3.65;;;;;;;8.13;63.84;100045.19;4916740;28;116217;-63
2021/11/26 06:10:55;;;;;;;8.38;3.72;;;;;;;8.12;63.74;100048.78;4914893;28;114700;-63
2021/11/26 06:13:22;;;;;;;7.47;3.63;;;;;;;8.10;63.77;100046.19;4922476;28;124067;-64
2021/11/26 06:15:50;;;;;;;9.13;4.28;;;;;;;8.09;63.43;100033.94;4918127;28;124736;-63
2021/11/26 06:18:17;;;;;;;7.60;4.13;;;;;;;8.09;63.59;100028.66;4917841;28;114332;-63
2021/11/26 06:20:44;;;;;;;9.32;4.20;;;;;;;8.09;63.67;100027.81;4919463;28;114369;-63
2021/11/26 06:23:11;;;;;;;10.07;3.90;;;;;;;8.09;63.56;100011.97;4916782;28;123860;-62
2021/11/26 06:25:39;;;;;;;9.88;4.38;;;;;;;8.09;63.55;100014.63;4923275;28;124345;-62
2021/11/26 06:28:06;;;;;;;9.35;4.70;;;;;;;8.08;63.41;100010.25;4922001;28;114097;-62
2021/11/26 06:30:33;;;;;;;9.48;4.22;;;;;;;8.09;63.81;100006.72;4923524;28;114691;-62
2021/11/26 06:33:00;;;;;;;8.68;4.60;;;;;;;8.08;63.50;100010.25;4928478;28;124147;-62
2021/11/26 06:35:27;;;;;;;8.13;4.45;;;;;;;8.08;63.63;100005.00;4917201;28;123887;-62
2021/11/26 06:37:56;;;;;;;9.68;4.47;;;;;;;8.06;63.84;99999.81;4922168;28;114353;-62
2021/11/26 06:40:24;;;;;;;12.75;4.80;;;;;;;8.06;63.83;99991.03;4920366;28;115282;-62
2021/11/26 06:42:52;;;;;;;9.27;4.25;;;;;;;8.05;63.54;99984.06;4922033;28;123779;-62
2021/11/26 06:45:19;;;;;;;11.95;4.50;;;;;;;8.07;63.90;99990.97;4915460;28;123602;-63
2021/11/26 06:47:48;;;;;;;9.85;4.70;;;;;;;8.08;63.71;99978.63;4920962;28;114033;-62
2021/11/26 06:50:16;;;;;;;10.63;4.13;;;;;;;8.05;63.54;99978.78;4911632;28;114183;-62
2021/11/26 06:52:43;;;;;;;11.13;4.90;;;;;;;8.06;63.74;99969.94;4924476;28;123821;-62
2021/11/26 06:55:11;;;;;;;9.57;4.80;;;;;;;8.08;63.89;99975.97;4919685;28;124196;-62
2021/11/26 06:57:40;;;;;;;10.63;4.22;;;;;;;8.06;63.86;99964.66;4915946;28;114442;-62
2021/11/26 07:00:13;;;;;;;11.77;4.20;;;;;;;8.06;63.49;99969.94;4912421;28;115410;-62
2021/11/26 07:02:40;;;;;;;11.90;4.47;;;;;;;8.06;63.59;99964.66;4917559;28;123479;-62
2021/11/26 07:05:08;;;;;;;10.25;4.32;;;;;;;8.06;63.44;99959.38;4913573;28;123705;-62
2021/11/26 07:07:36;;;;;;;12.02;4.20;;;;;;;8.05;63.67;99962.97;4914183;28;114778;-62
2021/11/26 07:10:04;;;;;;;12.27;4.28;;;;;;;8.04;63.49;99955.97;4919781;28;114285;-62
2021/11/26 07:12:32;;;;;;;9.70;4.40;;;;;;;8.05;63.96;99952.41;4923007;28;124531;-62
2021/11/26 07:14:59;;;;;;;11.35;4.20;;;;;;;8.04;63.76;99942.78;4918935;28;123637;-62
2021/11/26 07:17:29;;;;;;;12.73;4.35;;;;;;;8.03;63.38;99938.44;4915047;28;114371;-62
2021/11/26 07:19:57;;;;;;;12.85;4.15;;;;;;;8.02;63.51;99931.47;4912606;28;114402;-61
2021/11/26 07:22:24;;;;;;;12.25;4.50;;;;;;;8.02;63.77;99926.19;4915734;28;124287;-62
2021/11/26 07:24:51;;;;;;;11.88;4.00;;;;;;;8.01;63.86;99929.78;4919432;28;124283;-62
2021/11/26 07:27:18;;;;;;;12.13;4.18;;;;;;;8.02;63.86;99931.47;4912897;28;114029;-62
2021/11/26 07:29:45;;;;;;;11.60;4.30;;;;;;;8.01;63.62;99916.59;4912081;28;114192;-63
2021/11/26 07:32:13;;;;;;;9.85;4.00;;;;;;;8.01;63.83;99914.78;4909923;28;124317;-63
2021/11/26 07:34:40;;;;;;;14.88;4.35;;;;;;;8.02;63.50;99921.75;4928831;28;126951;-62
2021/11/26 07:37:12;;;;;;;14.50;4.82;;;;;;;8.01;63.61;99916.59;4920128;28;114593;-62
2021/11/26 07:39:40;;;;;;;11.00;4.90;;;;;;;7.99;63.94;99912.22;4923858;28;113804;-63
2021/11/26 07:42:10;;;;;;;13.93;4.65;;;;;;;8.02;63.69;99916.47;4919100;28;125405;-63
2021/11/26 07:44:40;;;;;;;10.85;4.68;;;;;;;8.02;63.95;99915.63;4924643;28;124646;-63
2021/11/26 07:47:11;;;;;;;13.07;5.10;;;;;;;8.03;63.94;99906.81;4924038;28;115349;-63
2021/11/26 07:49:40;;;;;;;13.10;4.68;;;;;;;8.03;63.46;99906.81;4927644;28;114860;-63
2021/11/26 07:52:09;;;;;;;12.73;5.25;;;;;;;8.03;63.51;99901.53;4924521;28;125401;-63
2021/11/26 07:54:37;;;;;;;14.18;4.63;;;;;;;8.02;63.47;99899.81;4917559;28;124219;-63
2021/11/26 07:57:04;;;;;;;16.17;5.20;;;;;;;8.02;63.75;99889.28;4911771;28;113740;-63
2021/11/26 07:59:32;;;;;;;12.35;4.60;;;;;;;8.01;63.83;99888.44;4918760;28;114594;-62
2021/11/26 08:01:59;;;;;;;17.90;5.82;;;;;;;8.01;63.49;99877.03;4911911;28;124202;-63
2021/11/26 08:04:26;;;;;;;12.73;4.93;;;;;;;8.01;63.71;99877.03;4919710;28;124293;-63
2021/11/26 08:06:56;;;;;;;10.00;4.45;;;;;;;8.02;63.69;99873.44;4920906;28;113165;-62
2021/11/26 08:09:27;;;;;;;15.63;4.57;;;;;;;8.01;63.93;99866.50;4928064;28;114817;-63
2021/11/26 08:11:55;;;;;;;12.02;4.20;;;;;;;8.02;63.74;99862.91;4916816;28;124231;-63
2021/11/26 08:14:23;;;;;;;14.82;4.60;;;;;;;8.02;63.31;99865.53;4928510;28;122925;-62
2021/11/26 08:16:53;;;;;;;14.20;4.53;;;;;;;8.02;63.39;99857.63;4925944;28;114245;-63
2021/11/26 08:19:23;;;;;;;12.27;4.15;;;;;;;8.02;63.47;99852.34;4924310;28;114125;-63
2021/11/26 08:21:52;;;;;;;12.35;4.05;;;;;;;8.01;63.32;99851.50;4913027;28;124520;-63
2021/11/26 08:24:20;;;;;;;13.90;4.25;;;;;;;8.02;63.34;99847.94;4914296;28;124696;-62
2021/11/26 08:26:48;;;;;;;14.07;5.20;;;;;;;8.02;63.33;99836.53;4917269;28;115158;-62
2021/11/26 08:29:16;;;;;;;12.23;3.72;;;;;;;8.04;63.44;99837.31;4922189;28;114148;-63
2021/11/26 08:31:43;;;;;;;13.27;3.78;;;;;;;8.03;63.57;99832.97;4915681;28;124881;-63
2021/11/26 08:34:11;;;;;;;13.43;4.00;;;;;;;8.05;63.41;99836.38;4917774;28;123133;-64
2021/11/26 08:36:38;;;;;;;11.70;3.50;;;;;;;8.05;63.58;99825.84;4915412;28;115076;-63
2021/11/26 08:39:08;;;;;;;11.02;4.10;;;;;;;8.05;63.52;99820.56;4929379;28;115171;-63
2021/11/26 08:41:36;;;;;;;14.88;3.83;;;;;;;8.07;63.40;99818.69;4920450;28;123949;-63
2021/11/26 08:44:04;;;;;;;9.60;3.30;;;;;;;8.08;63.08;99815.13;4924073;28;124289;-63
2021/11/26 08:46:31;;;;;;;8.93;3.17;;;;;;;8.09;63.47;99806.28;4910725;28;114388;-63
2021/11/26 08:48:59;;;;;;;13.18;3.70;;;;;;;8.10;62.98;99807.97;4924237;28;113935;-63
2021/11/26 08:51:29;;;;;;;8.77;3.70;;;;;;;8.10;63.07;99792.16;4947643;28;124681;-63
2021/11/26 08:53:56;;;;;;;7.75;3.15;;;;;;;8.11;63.25;99788.59;4935393;28;124516;-63
2021/11/26 08:56:26;;;;;;;12.35;3.65;;;;;;;8.09;63.32;99779.91;4937618;28;96836;-63
2021/11/26 08:58:53;;;;;;;6.60;2.60;;;;;;;8.12;63.26;99779.78;4948806;28;114336;-63
2021/11/26 09:01:20;;;;;;;14.65;3.58;;;;;;;8.12;63.22;99779.78;4943520;28;124239;-63
2021/11/26 09:03:49;;;;;;;11.05;3.90;;;;;;;8.12;63.27;99769.22;4929109;28;122836;-63
2021/11/26 09:06:18;;;;;;;8.88;3.05;;;;;;;8.13;63.01;99760.34;4942106;28;114983;-63
2021/11/26 09:08:46;;;;;;;8.95;3.20;;;;;;;8.13;62.86;99757.72;4917454;28;114371;-63
2021/11/26 09:11:16;;;;;;;9.32;3.13;;;;;;;8.14;63.12;99756.81;4925925;28;124276;-63
2021/11/26 09:13:44;;;;;;;5.95;3.00;;;;;;;8.15;63.00;99758.50;4928809;28;123822;-63
2021/11/26 09:16:12;;;;;;;11.38;2.90;;;;;;;8.16;63.15;99754.94;4916332;28;114517;-63
2021/11/26 09:18:40;;;;;;;8.23;2.88;;;;;;;8.17;63.14;99756.63;4922303;28;116366;-63
2021/11/26 09:21:07;;;;;;;8.52;3.00;;;;;;;8.20;63.04;99745.91;4912663;28;123817;-64
2021/11/26 09:23:34;;;;;;;9.43;3.10;;;;;;;8.21;62.89;99737.06;4914856;28;123914;-64
2021/11/26 09:26:02;;;;;;;13.18;3.10;;;;;;;8.23;62.84;99739.63;4914533;28;115047;-63
2021/11/26 09:28:29;;;;;;;10.13;3.20;;;;;;;8.23;62.69;99736.97;4920614;28;114736;-62
2021/11/26 09:30:57;;;;;;;10.15;3.30;;;;;;;8.23;62.54;99735.22;4929628;28;122976;-62
2021/11/26 09:33:24;;;;;;;8.27;2.60;;;;;;;8.24;62.83;99726.34;4935468;28;124125;-62
2021/11/26 09:35:56;;;;;;;11.20;3.35;;;;;;;8.24;62.88;99721.09;4919650;28;114275;-62
2021/11/26 09:38:23;;;;;;;10.57;3.20;;;;;;;8.24;62.54;99715.81;4922183;28;114120;-63
2021/11/26 09:40:50;;;;;;;9.55;2.70;;;;;;;8.26;62.62;99708.66;4919519;28;124416;-63
2021/11/26 09:43:18;;;;;;;8.10;3.00;;;;;;;8.27;62.67;99697.19;4928915;28;123931;-63
2021/11/26 09:45:46;;;;;;;7.85;3.15;;;;;;;8.29;62.44;99692.69;4919742;28;114081;-63
2021/11/26 09:48:13;;;;;;;7.50;3.08;;;;;;;8.30;62.63;99689.09;4925951;28;114688;-63
2021/11/26 09:50:41;;;;;;;8.07;2.88;;;;;;;8.31;62.65;99680.25;4931066;28;124386;-63
2021/11/26 09:53:17;;;;;;;13.63;3.47;;;;;;;8.30;62.22;99673.25;4935061;28;124177;-62
2021/11/26 09:55:50;;;;;;;7.82;3.10;;;;;;;8.29;62.07;99676.84;4919614;28;114131;-62
2021/11/26 09:58:20;;;;;;;10.50;3.50;;;;;;;8.28;62.15;99664.59;4920969;28;113745;-62
2021/11/26 10:00:49;;;;;;;9.60;3.10;;;;;;;8.28;62.34;99659.31;4932439;28;124332;-64
2021/11/26 10:03:17;;;;;;;10.13;3.10;;;;;;;8.30;62.43;99652.16;4934037;28;123305;-63
2021/11/26 10:05:46;;;;;;;11.02;3.53;;;;;;;8.32;62.22;99649.44;4930189;28;114413;-63
2021/11/26 10:08:21;;;;;;;11.52;3.95;;;;;;;8.32;62.26;99634.47;4932705;28;114012;-63
2021/11/26 10:10:49;;;;;;;9.15;3.38;;;;;;;8.36;62.03;99628.09;4932835;28;122986;-63
2021/11/26 10:13:17;;;;;;;10.77;3.75;;;;;;;8.37;62.12;99621.88;4935227;28;124302;-62
2021/11/26 10:15:47;;;;;;;12.80;3.88;;;;;;;8.37;62.05;99616.59;4934109;28;115099;-62
2021/11/26 10:18:16;;;;;;;13.18;3.92;;;;;;;8.39;62.33;99614.72;4923456;28;115198;-62
2021/11/26 10:21:00;;;;;;;12.70;3.78;;;;;;;8.43;61.87;99604.03;4915420;28;124285;-63
2021/11/26 10:23:31;;;;;;;10.13;3.78;;;;;;;8.45;62.01;99595.09;4932416;28;124347;-62
2021/11/26 10:26:18;;;;;;;7.45;3.25;;;;;;;8.49;62.28;99583.41;4916359;28;114651;-63
2021/11/26 10:28:50;;;;;;;7.32;3.35;;;;;;;8.54;61.95;99569.97;4927501;28;113844;-62
2021/11/26 10:31:30;;;;;;;9.25;3.63;;;;;;;8.57;61.89;99562.75;4911571;28;123964;-63
2021/11/26 10:34:17;;;;;;;10.90;3.50;;;;;;;8.63;61.79;99553.63;4926541;28;124568;-62
2021/11/26 10:36:49;;;;;;;10.82;3.35;;;;;;;8.67;62.16;99549.84;4921989;28;114012;-63
2021/11/26 10:39:20;;;;;;;11.20;3.33;;;;;;;8.73;61.72;99536.28;4931563;28;113955;-63
2021/11/26 10:41:52;;;;;;;11.32;3.47;;;;;;;8.80;61.84;99528.88;4931859;28;123808;-63
2021/11/26 10:44:29;;;;;;;6.80;3.13;;;;;;;8.85;61.57;99525.94;4932989;28;124330;-63
2021/11/26 10:47:22;;;;;;;9.98;3.08;;;;;;;8.89;61.35;99514.25;4919953;28;112970;-63
2021/11/26 10:52:53;;;;;;;10.90;3.28;;;;;;;8.95;61.44;99498.06;4930792;28;124359;-63
2021/11/26 10:58:20;;;;;;;5.65;2.80;;;;;;;9.01;61.28;99479.22;4931669;28;115370;-62
2021/11/26 11:00:47;;;;;;;10.43;3.53;;;;;;;9.04;61.10;99468.47;4938750;28;113804;-63
2021/11/26 11:03:23;;;;;;;12.05;3.40;;;;;;;9.07;61.23;99457.72;4934505;28;124703;-63
2021/11/26 11:05:50;;;;;;;;;;;;;;;9.10;61.35;99446.97;4923368;28;124673;-63
2021/11/26 11:08:20;;;;;;;7.57;3.45;;;;;;;9.14;61.02;99442.34;4932719;28;115320;-63
2021/11/26 11:10:47;;;;;;;9.90;3.28;;;;;;;9.15;60.86;99439.63;4931026;28;115261;-63
2021/11/26 11:13:17;;;;;;;8.07;3.35;;;;;;;9.18;60.58;99432.44;4934191;28;123876;-63
2021/11/26 11:15:49;;;;;;;9.07;3.30;;;;;;;9.19;61.06;99423.56;4931131;28;124953;-63
2021/11/26 11:18:17;;;;;;;10.38;3.25;;;;;;;9.21;60.72;99414.63;4931652;28;114166;-63
2021/11/26 11:20:44;;;;;;;10.95;3.30;;;;;;;9.23;60.93;99422.41;4933286;28;114186;-62
2021/11/26 11:23:14;;;;;;;12.80;3.53;;;;;;;9.24;60.48;99411.75;4933978;28;124580;-63
2021/11/26 11:25:42;;;;;;;9.13;3.65;;;;;;;9.26;60.33;99394.00;4931481;28;124559;-62
2021/11/26 11:28:15;;;;;;;12.07;3.20;;;;;;;9.27;60.40;99389.59;4914851;28;113224;-63
2021/11/26 11:30:42;;;;;;;9.65;3.20;;;;;;;9.26;60.52;99393.19;4925946;28;114021;-62
2021/11/26 11:33:10;;;;;;;8.73;3.20;;;;;;;9.25;60.18;99375.63;4932800;28;123079;-62
2021/11/26 11:35:38;;;;;;;8.80;3.40;;;;;;;9.26;60.23;99366.75;4921550;28;125284;-63
2021/11/26 11:38:08;;;;;;;7.55;2.85;;;;;;;9.25;59.93;99362.41;4914715;28;115033;-63